sensor_id;sensor_type;location;lat;lon;timestamp;P1;durP1;ratioP1;P2;durP2;ratioP2
22205;SDS011;11272;50.104;8.754;2022-09-13T00:00:59;9.70;;;7.27;;
22205;SDS011;11272;50.104;8.754;2022-09-13T00:03:25;10.73;;;7.47;;
22205;SDS011;11272;50.104;8.754;2022-09-13T00:05:51;12.00;;;8.00;;
22205;SDS011;11272;50.104;8.754;2022-09-13T00:08:18;11.00;;;7.43;;
22205;SDS011;11272;50.104;8.754;2022-09-13T00:10:45;13.70;;;7.77;;
22205;SDS011;11272;50.104;8.754;2022-09-13T00:13:11;10.93;;;7.73;;
22205;SDS011;11272;50.104;8.754;2022-09-13T00:15:42;10.63;;;7.73;;
22205;SDS011;11272;50.104;8.754;2022-09-13T00:18:09;12.17;;;8.40;;
22205;SDS011;11272;50.104;8.754;2022-09-13T00:20:38;11.90;;;8.10;;
22205;SDS011;11272;50.104;8.754;2022-09-13T00:23:04;15.17;;;8.70;;
22205;SDS011;11272;50.104;8.754;2022-09-13T00:25:29;13.50;;;8.27;;
22205;SDS011;11272;50.104;8.754;2022-09-13T00:27:55;14.53;;;8.30;;
22205;SDS011;11272;50.104;8.754;2022-09-13T00:30:23;12.30;;;7.87;;
22205;SDS011;11272;50.104;8.754;2022-09-13T00:32:48;12.10;;;8.07;;
22205;SDS011;11272;50.104;8.754;2022-09-13T00:35:14;12.63;;;7.60;;
22205;SDS011;11272;50.104;8.754;2022-09-13T00:37:39;14.80;;;8.03;;
22205;SDS011;11272;50.104;8.754;2022-09-13T00:40:05;12.17;;;7.73;;
22205;SDS011;11272;50.104;8.754;2022-09-13T00:42:31;14.00;;;7.53;;
22205;SDS011;11272;50.104;8.754;2022-09-13T00:44:58;14.30;;;8.27;;
22205;SDS011;11272;50.104;8.754;2022-09-13T00:47:38;13.10;;;8.17;;
22205;SDS011;11272;50.104;8.754;2022-09-13T00:53:02;15.97;;;8.67;;
22205;SDS011;11272;50.104;8.754;2022-09-13T00:55:43;12.20;;;8.20;;
22205;SDS011;11272;50.104;8.754;2022-09-13T00:58:17;17.10;;;8.90;;
22205;SDS011;11272;50.104;8.754;2022-09-13T01:00:58;12.97;;;8.30;;
22205;SDS011;11272;50.104;8.754;2022-09-13T01:03:28;16.10;;;9.07;;
22205;SDS011;11272;50.104;8.754;2022-09-13T01:06:16;13.00;;;8.30;;
22205;SDS011;11272;50.104;8.754;2022-09-13T01:08:46;14.37;;;9.90;;
22205;SDS011;11272;50.104;8.754;2022-09-13T01:11:19;14.23;;;9.63;;
22205;SDS011;11272;50.104;8.754;2022-09-13T01:13:53;16.60;;;9.67;;
22205;SDS011;11272;50.104;8.754;2022-09-13T01:16:20;13.90;;;9.07;;
22205;SDS011;11272;50.104;8.754;2022-09-13T01:18:46;16.07;;;9.03;;
22205;SDS011;11272;50.104;8.754;2022-09-13T01:29:30;14.63;;;9.57;;
22205;SDS011;11272;50.104;8.754;2022-09-13T01:34:58;15.47;;;8.57;;
22205;SDS011;11272;50.104;8.754;2022-09-13T01:37:41;14.27;;;9.07;;
22205;SDS011;11272;50.104;8.754;2022-09-13T01:45:55;19.60;;;8.83;;
22205;SDS011;11272;50.104;8.754;2022-09-13T01:48:33;12.73;;;8.20;;
22205;SDS011;11272;50.104;8.754;2022-09-13T01:51:05;14.07;;;8.10;;
22205;SDS011;11272;50.104;8.754;2022-09-13T01:56:22;14.37;;;8.67;;
22205;SDS011;11272;50.104;8.754;2022-09-13T01:58:57;15.30;;;8.93;;
22205;SDS011;11272;50.104;8.754;2022-09-13T02:01:29;14.33;;;8.17;;
22205;SDS011;11272;50.104;8.754;2022-09-13T02:04:03;16.17;;;8.10;;
22205;SDS011;11272;50.104;8.754;2022-09-13T02:06:33;13.43;;;8.17;;
22205;SDS011;11272;50.104;8.754;2022-09-13T02:09:03;13.63;;;9.17;;
22205;SDS011;11272;50.104;8.754;2022-09-13T02:11:35;12.03;;;8.30;;
22205;SDS011;11272;50.104;8.754;2022-09-13T02:14:14;14.90;;;8.03;;
22205;SDS011;11272;50.104;8.754;2022-09-13T02:17:04;14.37;;;8.60;;
22205;SDS011;11272;50.104;8.754;2022-09-13T02:19:48;15.33;;;8.60;;
22205;SDS011;11272;50.104;8.754;2022-09-13T02:22:20;12.57;;;8.87;;
22205;SDS011;11272;50.104;8.754;2022-09-13T02:24:52;12.67;;;8.80;;
22205;SDS011;11272;50.104;8.754;2022-09-13T02:27:23;12.97;;;8.90;;
22205;SDS011;11272;50.104;8.754;2022-09-13T02:29:58;13.97;;;8.73;;
22205;SDS011;11272;50.104;8.754;2022-09-13T02:32:34;13.77;;;8.60;;
22205;SDS011;11272;50.104;8.754;2022-09-13T02:35:06;14.53;;;8.47;;
22205;SDS011;11272;50.104;8.754;2022-09-13T02:37:39;13.27;;;8.63;;
22205;SDS011;11272;50.104;8.754;2022-09-13T02:40:12;14.57;;;9.20;;
22205;SDS011;11272;50.104;8.754;2022-09-13T02:42:42;17.37;;;8.67;;
22205;SDS011;11272;50.104;8.754;2022-09-13T02:45:12;14.93;;;8.97;;
22205;SDS011;11272;50.104;8.754;2022-09-13T02:51:05;12.57;;;9.27;;
22205;SDS011;11272;50.104;8.754;2022-09-13T02:53:49;14.03;;;9.10;;
22205;SDS011;11272;50.104;8.754;2022-09-13T02:56:24;15.47;;;9.07;;
22205;SDS011;11272;50.104;8.754;2022-09-13T03:02:10;16.17;;;9.80;;
22205;SDS011;11272;50.104;8.754;2022-09-13T03:04:38;15.57;;;9.27;;
22205;SDS011;11272;50.104;8.754;2022-09-13T03:07:07;14.33;;;8.53;;
22205;SDS011;11272;50.104;8.754;2022-09-13T03:09:36;13.63;;;8.03;;
22205;SDS011;11272;50.104;8.754;2022-09-13T03:20:16;11.93;;;8.07;;
22205;SDS011;11272;50.104;8.754;2022-09-13T03:23:08;13.27;;;8.13;;
22205;SDS011;11272;50.104;8.754;2022-09-13T03:28:53;20.10;;;9.13;;
22205;SDS011;11272;50.104;8.754;2022-09-13T03:31:30;12.17;;;8.83;;
22205;SDS011;11272;50.104;8.754;2022-09-13T03:34:06;11.67;;;8.40;;
22205;SDS011;11272;50.104;8.754;2022-09-13T03:36:41;11.50;;;8.80;;
22205;SDS011;11272;50.104;8.754;2022-09-13T03:39:13;12.10;;;8.77;;
22205;SDS011;11272;50.104;8.754;2022-09-13T03:41:56;10.40;;;7.53;;
22205;SDS011;11272;50.104;8.754;2022-09-13T03:44:29;11.10;;;8.10;;
22205;SDS011;11272;50.104;8.754;2022-09-13T03:47:01;12.27;;;8.43;;
22205;SDS011;11272;50.104;8.754;2022-09-13T03:49:30;11.70;;;7.87;;
22205;SDS011;11272;50.104;8.754;2022-09-13T03:52:02;17.80;;;8.20;;
22205;SDS011;11272;50.104;8.754;2022-09-13T03:54:29;13.57;;;8.50;;
22205;SDS011;11272;50.104;8.754;2022-09-13T03:57:10;15.43;;;8.60;;
22205;SDS011;11272;50.104;8.754;2022-09-13T03:59:37;12.37;;;8.50;;
22205;SDS011;11272;50.104;8.754;2022-09-13T04:02:16;12.03;;;8.97;;
22205;SDS011;11272;50.104;8.754;2022-09-13T04:04:44;14.47;;;9.10;;
22205;SDS011;11272;50.104;8.754;2022-09-13T04:07:13;16.57;;;9.00;;
22205;SDS011;11272;50.104;8.754;2022-09-13T04:09:53;11.93;;;8.53;;
22205;SDS011;11272;50.104;8.754;2022-09-13T04:12:20;12.80;;;8.40;;
22205;SDS011;11272;50.104;8.754;2022-09-13T04:14:46;12.20;;;8.77;;
22205;SDS011;11272;50.104;8.754;2022-09-13T04:17:12;13.47;;;8.93;;
22205;SDS011;11272;50.104;8.754;2022-09-13T04:19:38;19.57;;;9.17;;
22205;SDS011;11272;50.104;8.754;2022-09-13T04:22:03;14.33;;;9.87;;
22205;SDS011;11272;50.104;8.754;2022-09-13T04:24:29;15.17;;;9.03;;
22205;SDS011;11272;50.104;8.754;2022-09-13T04:26:56;14.73;;;9.27;;
22205;SDS011;11272;50.104;8.754;2022-09-13T04:29:22;15.87;;;9.87;;
22205;SDS011;11272;50.104;8.754;2022-09-13T04:31:49;13.63;;;8.70;;
22205;SDS011;11272;50.104;8.754;2022-09-13T04:34:16;13.93;;;8.77;;
22205;SDS011;11272;50.104;8.754;2022-09-13T04:36:43;11.73;;;8.40;;
22205;SDS011;11272;50.104;8.754;2022-09-13T04:39:12;16.20;;;9.40;;
22205;SDS011;11272;50.104;8.754;2022-09-13T04:41:41;14.43;;;8.50;;
22205;SDS011;11272;50.104;8.754;2022-09-13T04:44:10;13.37;;;8.47;;
22205;SDS011;11272;50.104;8.754;2022-09-13T04:46:36;18.30;;;8.50;;
22205;SDS011;11272;50.104;8.754;2022-09-13T04:49:02;12.83;;;8.60;;
22205;SDS011;11272;50.104;8.754;2022-09-13T04:51:30;14.57;;;8.50;;
22205;SDS011;11272;50.104;8.754;2022-09-13T04:53:56;13.97;;;8.93;;
22205;SDS011;11272;50.104;8.754;2022-09-13T04:56:22;18.70;;;9.60;;
22205;SDS011;11272;50.104;8.754;2022-09-13T04:58:51;12.60;;;8.63;;
22205;SDS011;11272;50.104;8.754;2022-09-13T05:01:19;16.27;;;8.47;;
22205;SDS011;11272;50.104;8.754;2022-09-13T05:03:45;13.10;;;8.80;;
22205;SDS011;11272;50.104;8.754;2022-09-13T05:06:12;16.27;;;9.50;;
22205;SDS011;11272;50.104;8.754;2022-09-13T05:08:42;14.10;;;8.97;;
22205;SDS011;11272;50.104;8.754;2022-09-13T05:11:09;16.17;;;8.93;;
22205;SDS011;11272;50.104;8.754;2022-09-13T05:13:36;12.67;;;8.17;;
22205;SDS011;11272;50.104;8.754;2022-09-13T05:16:03;11.87;;;8.03;;
22205;SDS011;11272;50.104;8.754;2022-09-13T05:18:31;12.30;;;8.43;;
22205;SDS011;11272;50.104;8.754;2022-09-13T05:20:59;11.00;;;7.97;;
22205;SDS011;11272;50.104;8.754;2022-09-13T05:23:26;14.20;;;8.40;;
22205;SDS011;11272;50.104;8.754;2022-09-13T05:25:53;12.80;;;8.13;;
22205;SDS011;11272;50.104;8.754;2022-09-13T05:28:20;12.67;;;7.80;;
22205;SDS011;11272;50.104;8.754;2022-09-13T05:30:56;10.93;;;7.47;;
22205;SDS011;11272;50.104;8.754;2022-09-13T05:33:28;13.43;;;8.07;;
22205;SDS011;11272;50.104;8.754;2022-09-13T05:35:55;13.77;;;7.70;;
22205;SDS011;11272;50.104;8.754;2022-09-13T05:38:20;12.50;;;7.73;;
22205;SDS011;11272;50.104;8.754;2022-09-13T05:40:46;10.90;;;6.67;;
22205;SDS011;11272;50.104;8.754;2022-09-13T05:43:12;11.60;;;7.37;;
22205;SDS011;11272;50.104;8.754;2022-09-13T05:45:38;11.40;;;6.90;;
22205;SDS011;11272;50.104;8.754;2022-09-13T05:48:06;9.97;;;7.20;;
22205;SDS011;11272;50.104;8.754;2022-09-13T05:50:35;9.87;;;7.00;;
22205;SDS011;11272;50.104;8.754;2022-09-13T05:53:01;8.77;;;6.87;;
22205;SDS011;11272;50.104;8.754;2022-09-13T05:55:27;10.97;;;7.27;;
22205;SDS011;11272;50.104;8.754;2022-09-13T05:57:54;11.23;;;7.33;;
22205;SDS011;11272;50.104;8.754;2022-09-13T06:00:20;9.83;;;6.90;;
22205;SDS011;11272;50.104;8.754;2022-09-13T06:02:45;12.20;;;7.77;;
22205;SDS011;11272;50.104;8.754;2022-09-13T06:05:11;9.27;;;7.20;;
22205;SDS011;11272;50.104;8.754;2022-09-13T06:07:40;14.00;;;7.77;;
22205;SDS011;11272;50.104;8.754;2022-09-13T06:10:06;13.50;;;7.30;;
22205;SDS011;11272;50.104;8.754;2022-09-13T06:12:33;10.57;;;7.67;;
22205;SDS011;11272;50.104;8.754;2022-09-13T06:14:58;10.63;;;7.97;;
22205;SDS011;11272;50.104;8.754;2022-09-13T06:17:23;12.57;;;7.60;;
22205;SDS011;11272;50.104;8.754;2022-09-13T06:19:54;9.97;;;6.53;;
22205;SDS011;11272;50.104;8.754;2022-09-13T06:22:21;9.93;;;6.93;;
22205;SDS011;11272;50.104;8.754;2022-09-13T06:24:46;12.70;;;7.10;;
22205;SDS011;11272;50.104;8.754;2022-09-13T06:27:12;9.93;;;7.00;;
22205;SDS011;11272;50.104;8.754;2022-09-13T06:29:37;15.10;;;7.80;;
22205;SDS011;11272;50.104;8.754;2022-09-13T06:32:03;12.23;;;7.70;;
22205;SDS011;11272;50.104;8.754;2022-09-13T06:34:29;14.20;;;7.47;;
22205;SDS011;11272;50.104;8.754;2022-09-13T06:36:54;11.90;;;7.40;;
22205;SDS011;11272;50.104;8.754;2022-09-13T06:39:20;13.50;;;7.53;;
22205;SDS011;11272;50.104;8.754;2022-09-13T06:41:45;12.07;;;7.93;;
22205;SDS011;11272;50.104;8.754;2022-09-13T06:44:11;11.17;;;7.47;;
22205;SDS011;11272;50.104;8.754;2022-09-13T06:46:36;15.27;;;8.03;;
22205;SDS011;11272;50.104;8.754;2022-09-13T06:49:03;13.50;;;8.20;;
22205;SDS011;11272;50.104;8.754;2022-09-13T06:51:29;15.17;;;7.90;;
22205;SDS011;11272;50.104;8.754;2022-09-13T06:53:56;14.07;;;7.50;;
22205;SDS011;11272;50.104;8.754;2022-09-13T06:56:23;13.03;;;7.93;;
22205;SDS011;11272;50.104;8.754;2022-09-13T06:58:51;10.53;;;7.50;;
22205;SDS011;11272;50.104;8.754;2022-09-13T07:01:21;11.33;;;8.13;;
22205;SDS011;11272;50.104;8.754;2022-09-13T07:04:10;14.03;;;8.27;;
22205;SDS011;11272;50.104;8.754;2022-09-13T07:06:38;11.13;;;7.50;;
22205;SDS011;11272;50.104;8.754;2022-09-13T07:09:06;10.60;;;7.37;;
22205;SDS011;11272;50.104;8.754;2022-09-13T07:11:35;12.97;;;8.00;;
22205;SDS011;11272;50.104;8.754;2022-09-13T07:14:02;12.90;;;7.93;;
22205;SDS011;11272;50.104;8.754;2022-09-13T07:16:34;11.70;;;7.83;;
22205;SDS011;11272;50.104;8.754;2022-09-13T07:19:02;14.13;;;8.60;;
22205;SDS011;11272;50.104;8.754;2022-09-13T07:21:33;12.63;;;8.97;;
22205;SDS011;11272;50.104;8.754;2022-09-13T07:23:59;15.93;;;8.70;;
22205;SDS011;11272;50.104;8.754;2022-09-13T07:26:25;12.80;;;8.40;;
22205;SDS011;11272;50.104;8.754;2022-09-13T07:28:52;17.30;;;9.70;;
22205;SDS011;11272;50.104;8.754;2022-09-13T07:33:47;18.60;;;9.43;;
22205;SDS011;11272;50.104;8.754;2022-09-13T07:36:17;14.63;;;9.07;;
22205;SDS011;11272;50.104;8.754;2022-09-13T07:38:42;14.73;;;9.33;;
22205;SDS011;11272;50.104;8.754;2022-09-13T07:41:19;16.60;;;8.17;;
22205;SDS011;11272;50.104;8.754;2022-09-13T07:43:49;12.50;;;8.30;;
22205;SDS011;11272;50.104;8.754;2022-09-13T07:46:18;13.93;;;8.50;;
22205;SDS011;11272;50.104;8.754;2022-09-13T07:48:48;11.93;;;8.30;;
22205;SDS011;11272;50.104;8.754;2022-09-13T07:51:17;14.93;;;8.43;;
22205;SDS011;11272;50.104;8.754;2022-09-13T07:53:45;14.60;;;8.73;;
22205;SDS011;11272;50.104;8.754;2022-09-13T07:58:39;13.43;;;8.67;;
22205;SDS011;11272;50.104;8.754;2022-09-13T08:01:07;13.90;;;8.77;;
22205;SDS011;11272;50.104;8.754;2022-09-13T08:03:37;13.00;;;8.80;;
22205;SDS011;11272;50.104;8.754;2022-09-13T08:06:03;12.70;;;8.77;;
22205;SDS011;11272;50.104;8.754;2022-09-13T08:08:30;13.00;;;8.93;;
22205;SDS011;11272;50.104;8.754;2022-09-13T08:10:57;13.90;;;8.83;;
22205;SDS011;11272;50.104;8.754;2022-09-13T08:13:24;13.43;;;9.20;;
22205;SDS011;11272;50.104;8.754;2022-09-13T08:15:50;17.53;;;8.77;;
22205;SDS011;11272;50.104;8.754;2022-09-13T08:18:16;19.33;;;8.60;;
22205;SDS011;11272;50.104;8.754;2022-09-13T08:20:43;15.00;;;8.63;;
22205;SDS011;11272;50.104;8.754;2022-09-13T08:23:09;13.53;;;8.60;;
22205;SDS011;11272;50.104;8.754;2022-09-13T08:25:36;12.83;;;8.13;;
22205;SDS011;11272;50.104;8.754;2022-09-13T08:30:35;13.40;;;9.00;;
22205;SDS011;11272;50.104;8.754;2022-09-13T08:33:02;14.63;;;8.90;;
22205;SDS011;11272;50.104;8.754;2022-09-13T08:35:28;12.90;;;8.77;;
22205;SDS011;11272;50.104;8.754;2022-09-13T08:37:59;15.30;;;8.57;;
22205;SDS011;11272;50.104;8.754;2022-09-13T08:40:27;13.73;;;8.67;;
22205;SDS011;11272;50.104;8.754;2022-09-13T08:45:30;13.20;;;8.43;;
22205;SDS011;11272;50.104;8.754;2022-09-13T08:47:56;12.97;;;8.53;;
22205;SDS011;11272;50.104;8.754;2022-09-13T08:50:28;12.73;;;8.53;;
22205;SDS011;11272;50.104;8.754;2022-09-13T08:52:58;13.80;;;8.17;;
22205;SDS011;11272;50.104;8.754;2022-09-13T09:00:53;10.17;;;6.93;;
22205;SDS011;11272;50.104;8.754;2022-09-13T09:03:37;11.93;;;7.77;;
22205;SDS011;11272;50.104;8.754;2022-09-13T09:06:16;12.77;;;8.80;;
22205;SDS011;11272;50.104;8.754;2022-09-13T09:14:40;11.00;;;7.50;;
22205;SDS011;11272;50.104;8.754;2022-09-13T09:17:15;11.50;;;7.27;;
22205;SDS011;11272;50.104;8.754;2022-09-13T09:19:47;12.50;;;7.13;;
22205;SDS011;11272;50.104;8.754;2022-09-13T09:22:34;49.30;;;13.77;;
22205;SDS011;11272;50.104;8.754;2022-09-13T09:25:00;17.43;;;9.10;;
22205;SDS011;11272;50.104;8.754;2022-09-13T09:27:28;13.63;;;8.27;;
22205;SDS011;11272;50.104;8.754;2022-09-13T09:29:55;15.63;;;8.87;;
22205;SDS011;11272;50.104;8.754;2022-09-13T09:32:39;14.50;;;8.60;;
22205;SDS011;11272;50.104;8.754;2022-09-13T09:35:34;15.17;;;8.97;;
22205;SDS011;11272;50.104;8.754;2022-09-13T09:38:40;20.30;;;9.27;;
22205;SDS011;11272;50.104;8.754;2022-09-13T09:43:58;13.43;;;9.07;;
22205;SDS011;11272;50.104;8.754;2022-09-13T09:46:45;20.10;;;10.07;;
22205;SDS011;11272;50.104;8.754;2022-09-13T09:52:08;14.60;;;9.13;;
22205;SDS011;11272;50.104;8.754;2022-09-13T09:54:36;14.43;;;8.50;;
22205;SDS011;11272;50.104;8.754;2022-09-13T09:57:03;16.47;;;10.27;;
22205;SDS011;11272;50.104;8.754;2022-09-13T09:59:32;19.27;;;9.53;;
22205;SDS011;11272;50.104;8.754;2022-09-13T10:01:59;13.27;;;9.40;;
22205;SDS011;11272;50.104;8.754;2022-09-13T10:04:29;14.23;;;9.43;;
22205;SDS011;11272;50.104;8.754;2022-09-13T10:09:59;14.43;;;9.13;;
22205;SDS011;11272;50.104;8.754;2022-09-13T10:12:31;11.90;;;8.60;;
22205;SDS011;11272;50.104;8.754;2022-09-13T10:15:06;16.60;;;8.90;;
22205;SDS011;11272;50.104;8.754;2022-09-13T10:18:00;15.83;;;9.13;;
22205;SDS011;11272;50.104;8.754;2022-09-13T10:20:29;13.83;;;9.47;;
22205;SDS011;11272;50.104;8.754;2022-09-13T10:23:30;14.07;;;9.20;;
22205;SDS011;11272;50.104;8.754;2022-09-13T10:25:55;16.80;;;9.87;;
22205;SDS011;11272;50.104;8.754;2022-09-13T10:28:25;18.57;;;10.50;;
22205;SDS011;11272;50.104;8.754;2022-09-13T10:30:59;16.67;;;9.57;;
22205;SDS011;11272;50.104;8.754;2022-09-13T10:33:37;15.93;;;9.70;;
22205;SDS011;11272;50.104;8.754;2022-09-13T10:36:13;15.30;;;9.10;;
22205;SDS011;11272;50.104;8.754;2022-09-13T10:38:46;11.97;;;8.53;;
22205;SDS011;11272;50.104;8.754;2022-09-13T10:41:25;14.70;;;9.57;;
22205;SDS011;11272;50.104;8.754;2022-09-13T10:43:56;14.70;;;9.30;;
22205;SDS011;11272;50.104;8.754;2022-09-13T10:46:23;12.83;;;9.27;;
22205;SDS011;11272;50.104;8.754;2022-09-13T10:48:49;12.50;;;8.97;;
22205;SDS011;11272;50.104;8.754;2022-09-13T10:56:39;16.63;;;8.73;;
22205;SDS011;11272;50.104;8.754;2022-09-13T11:01:47;13.47;;;8.37;;
22205;SDS011;11272;50.104;8.754;2022-09-13T11:13:47;11.50;;;7.37;;
22205;SDS011;11272;50.104;8.754;2022-09-13T11:16:43;9.67;;;7.47;;
22205;SDS011;11272;50.104;8.754;2022-09-13T11:25:42;10.90;;;8.20;;
22205;SDS011;11272;50.104;8.754;2022-09-13T11:28:40;19.50;;;7.93;;
22205;SDS011;11272;50.104;8.754;2022-09-13T11:36:37;12.83;;;7.20;;
22205;SDS011;11272;50.104;8.754;2022-09-13T11:39:29;11.90;;;7.20;;
22205;SDS011;11272;50.104;8.754;2022-09-13T11:42:07;10.47;;;7.37;;
22205;SDS011;11272;50.104;8.754;2022-09-13T11:55:39;9.70;;;6.73;;
22205;SDS011;11272;50.104;8.754;2022-09-13T11:58:11;12.03;;;6.43;;
22205;SDS011;11272;50.104;8.754;2022-09-13T12:00:46;12.73;;;7.03;;
22205;SDS011;11272;50.104;8.754;2022-09-13T12:03:25;13.93;;;7.60;;
22205;SDS011;11272;50.104;8.754;2022-09-13T12:06:00;14.40;;;6.93;;
22205;SDS011;11272;50.104;8.754;2022-09-13T12:08:35;10.80;;;7.27;;
22205;SDS011;11272;50.104;8.754;2022-09-13T12:11:40;15.80;;;7.50;;
22205;SDS011;11272;50.104;8.754;2022-09-13T12:14:02;13.97;;;7.47;;
22205;SDS011;11272;50.104;8.754;2022-09-13T12:16:31;15.03;;;6.93;;
22205;SDS011;11272;50.104;8.754;2022-09-13T12:19:04;9.57;;;6.67;;
22205;SDS011;11272;50.104;8.754;2022-09-13T12:21:37;9.67;;;6.30;;
22205;SDS011;11272;50.104;8.754;2022-09-13T12:24:07;13.20;;;7.03;;
22205;SDS011;11272;50.104;8.754;2022-09-13T12:32:03;11.43;;;6.13;;
22205;SDS011;11272;50.104;8.754;2022-09-13T12:37:07;8.97;;;5.40;;
22205;SDS011;11272;50.104;8.754;2022-09-13T12:59:53;7.20;;;5.45;;
22205;SDS011;11272;50.104;8.754;2022-09-13T13:06:15;10.30;;;5.70;;
22205;SDS011;11272;50.104;8.754;2022-09-13T13:08:31;9.10;;;5.47;;
22205;SDS011;11272;50.104;8.754;2022-09-13T13:11:03;9.70;;;5.77;;
22205;SDS011;11272;50.104;8.754;2022-09-13T13:13:44;8.43;;;5.43;;
22205;SDS011;11272;50.104;8.754;2022-09-13T13:16:22;11.73;;;6.30;;
22205;SDS011;11272;50.104;8.754;2022-09-13T13:18:49;9.67;;;6.10;;
22205;SDS011;11272;50.104;8.754;2022-09-13T13:21:27;8.67;;;6.40;;
22205;SDS011;11272;50.104;8.754;2022-09-13T13:26:55;9.97;;;6.00;;
22205;SDS011;11272;50.104;8.754;2022-09-13T13:29:23;9.33;;;5.47;;
22205;SDS011;11272;50.104;8.754;2022-09-13T13:36:47;6.73;;;5.53;;
22205;SDS011;11272;50.104;8.754;2022-09-13T13:46:52;7.93;;;4.83;;
22205;SDS011;11272;50.104;8.754;2022-09-13T13:57:59;6.40;;;5.20;;
22205;SDS011;11272;50.104;8.754;2022-09-13T14:00:29;8.17;;;5.17;;
22205;SDS011;11272;50.104;8.754;2022-09-13T14:03:04;6.83;;;5.43;;
22205;SDS011;11272;50.104;8.754;2022-09-13T14:05:41;7.33;;;5.10;;
22205;SDS011;11272;50.104;8.754;2022-09-13T14:08:35;10.87;;;4.93;;
22205;SDS011;11272;50.104;8.754;2022-09-13T14:19:53;10.20;;;4.73;;
22205;SDS011;11272;50.104;8.754;2022-09-13T14:22:25;8.83;;;5.77;;
22205;SDS011;11272;50.104;8.754;2022-09-13T14:24:52;12.20;;;5.10;;
22205;SDS011;11272;50.104;8.754;2022-09-13T14:27:26;8.97;;;4.80;;
22205;SDS011;11272;50.104;8.754;2022-09-13T14:29:56;10.53;;;4.50;;
22205;SDS011;11272;50.104;8.754;2022-09-13T14:32:26;8.67;;;4.60;;
22205;SDS011;11272;50.104;8.754;2022-09-13T14:34:55;8.90;;;4.90;;
22205;SDS011;11272;50.104;8.754;2022-09-13T14:37:27;5.67;;;4.40;;
22205;SDS011;11272;50.104;8.754;2022-09-13T14:42:25;9.20;;;4.60;;
22205;SDS011;11272;50.104;8.754;2022-09-13T14:44:51;9.20;;;5.23;;
22205;SDS011;11272;50.104;8.754;2022-09-13T14:47:34;11.97;;;4.87;;
22205;SDS011;11272;50.104;8.754;2022-09-13T14:50:12;10.60;;;6.10;;
22205;SDS011;11272;50.104;8.754;2022-09-13T14:55:15;11.93;;;5.77;;
22205;SDS011;11272;50.104;8.754;2022-09-13T14:57:47;17.73;;;6.70;;
22205;SDS011;11272;50.104;8.754;2022-09-13T15:00:17;15.70;;;7.03;;
22205;SDS011;11272;50.104;8.754;2022-09-13T15:02:54;9.13;;;6.63;;
22205;SDS011;11272;50.104;8.754;2022-09-13T15:05:25;14.17;;;7.60;;
22205;SDS011;11272;50.104;8.754;2022-09-13T15:07:52;15.10;;;8.30;;
22205;SDS011;11272;50.104;8.754;2022-09-13T15:10:25;12.23;;;7.40;;
22205;SDS011;11272;50.104;8.754;2022-09-13T15:13:07;19.77;;;9.60;;
22205;SDS011;11272;50.104;8.754;2022-09-13T15:15:40;22.20;;;9.23;;
22205;SDS011;11272;50.104;8.754;2022-09-13T15:20:45;19.80;;;8.73;;
22205;SDS011;11272;50.104;8.754;2022-09-13T15:23:17;11.77;;;8.13;;
22205;SDS011;11272;50.104;8.754;2022-09-13T15:25:52;20.90;;;8.47;;
22205;SDS011;11272;50.104;8.754;2022-09-13T15:28:25;14.53;;;8.90;;
22205;SDS011;11272;50.104;8.754;2022-09-13T15:30:53;12.13;;;8.70;;
22205;SDS011;11272;50.104;8.754;2022-09-13T15:33:22;14.23;;;8.60;;
22205;SDS011;11272;50.104;8.754;2022-09-13T15:35:50;14.37;;;8.67;;
22205;SDS011;11272;50.104;8.754;2022-09-13T15:43:37;11.73;;;8.37;;
22205;SDS011;11272;50.104;8.754;2022-09-13T15:46:04;12.40;;;8.10;;
22205;SDS011;11272;50.104;8.754;2022-09-13T15:48:31;12.20;;;8.70;;
22205;SDS011;11272;50.104;8.754;2022-09-13T15:51:08;12.63;;;8.30;;
22205;SDS011;11272;50.104;8.754;2022-09-13T15:53:35;11.57;;;8.47;;
22205;SDS011;11272;50.104;8.754;2022-09-13T15:56:03;14.77;;;8.43;;
22205;SDS011;11272;50.104;8.754;2022-09-13T15:58:29;11.57;;;7.90;;
22205;SDS011;11272;50.104;8.754;2022-09-13T16:00:54;14.63;;;8.50;;
22205;SDS011;11272;50.104;8.754;2022-09-13T16:03:20;13.20;;;8.33;;
22205;SDS011;11272;50.104;8.754;2022-09-13T16:05:45;15.13;;;8.60;;
22205;SDS011;11272;50.104;8.754;2022-09-13T16:08:11;18.00;;;8.33;;
22205;SDS011;11272;50.104;8.754;2022-09-13T16:10:37;12.47;;;8.37;;
22205;SDS011;11272;50.104;8.754;2022-09-13T16:13:02;12.93;;;8.30;;
22205;SDS011;11272;50.104;8.754;2022-09-13T16:15:28;13.13;;;8.57;;
22205;SDS011;11272;50.104;8.754;2022-09-13T16:17:53;14.60;;;8.93;;
22205;SDS011;11272;50.104;8.754;2022-09-13T16:20:18;13.30;;;8.83;;
22205;SDS011;11272;50.104;8.754;2022-09-13T16:22:44;12.13;;;8.27;;
22205;SDS011;11272;50.104;8.754;2022-09-13T16:25:13;13.93;;;7.87;;
22205;SDS011;11272;50.104;8.754;2022-09-13T16:27:40;14.97;;;9.47;;
22205;SDS011;11272;50.104;8.754;2022-09-13T16:30:08;13.73;;;9.50;;
22205;SDS011;11272;50.104;8.754;2022-09-13T16:32:35;15.40;;;9.07;;
22205;SDS011;11272;50.104;8.754;2022-09-13T16:35:01;12.60;;;8.60;;
22205;SDS011;11272;50.104;8.754;2022-09-13T16:37:26;12.77;;;8.23;;
22205;SDS011;11272;50.104;8.754;2022-09-13T16:39:54;12.27;;;8.83;;
22205;SDS011;11272;50.104;8.754;2022-09-13T16:42:21;11.93;;;9.20;;
22205;SDS011;11272;50.104;8.754;2022-09-13T16:44:47;13.73;;;8.73;;
22205;SDS011;11272;50.104;8.754;2022-09-13T16:47:12;12.10;;;8.70;;
22205;SDS011;11272;50.104;8.754;2022-09-13T16:49:37;16.53;;;9.50;;
22205;SDS011;11272;50.104;8.754;2022-09-13T16:52:03;18.83;;;9.40;;
22205;SDS011;11272;50.104;8.754;2022-09-13T16:54:29;16.23;;;9.47;;
22205;SDS011;11272;50.104;8.754;2022-09-13T16:56:55;16.17;;;9.33;;
22205;SDS011;11272;50.104;8.754;2022-09-13T16:59:22;11.50;;;8.07;;
22205;SDS011;11272;50.104;8.754;2022-09-13T17:01:47;14.70;;;8.90;;
22205;SDS011;11272;50.104;8.754;2022-09-13T17:04:13;12.97;;;8.60;;
22205;SDS011;11272;50.104;8.754;2022-09-13T17:06:38;10.60;;;7.73;;
22205;SDS011;11272;50.104;8.754;2022-09-13T17:09:04;13.33;;;8.50;;
22205;SDS011;11272;50.104;8.754;2022-09-13T17:11:32;18.17;;;9.53;;
22205;SDS011;11272;50.104;8.754;2022-09-13T17:14:00;16.97;;;9.80;;
22205;SDS011;11272;50.104;8.754;2022-09-13T17:16:28;16.70;;;9.33;;
22205;SDS011;11272;50.104;8.754;2022-09-13T17:18:59;13.07;;;9.03;;
22205;SDS011;11272;50.104;8.754;2022-09-13T17:21:28;16.37;;;10.17;;
22205;SDS011;11272;50.104;8.754;2022-09-13T17:23:55;13.13;;;8.93;;
22205;SDS011;11272;50.104;8.754;2022-09-13T17:26:20;16.90;;;10.07;;
22205;SDS011;11272;50.104;8.754;2022-09-13T17:28:46;14.00;;;9.57;;
22205;SDS011;11272;50.104;8.754;2022-09-13T17:31:12;14.43;;;10.10;;
22205;SDS011;11272;50.104;8.754;2022-09-13T17:33:39;14.77;;;10.07;;
22205;SDS011;11272;50.104;8.754;2022-09-13T17:36:06;17.80;;;10.93;;
22205;SDS011;11272;50.104;8.754;2022-09-13T17:38:33;21.07;;;11.10;;
22205;SDS011;11272;50.104;8.754;2022-09-13T17:41:00;21.33;;;11.10;;
22205;SDS011;11272;50.104;8.754;2022-09-13T17:43:33;17.20;;;11.10;;
22205;SDS011;11272;50.104;8.754;2022-09-13T17:46:06;20.37;;;11.43;;
22205;SDS011;11272;50.104;8.754;2022-09-13T17:48:35;17.37;;;11.33;;
22205;SDS011;11272;50.104;8.754;2022-09-13T17:51:04;16.47;;;11.03;;
22205;SDS011;11272;50.104;8.754;2022-09-13T17:53:35;18.03;;;10.80;;
22205;SDS011;11272;50.104;8.754;2022-09-13T17:56:10;16.67;;;11.13;;
22205;SDS011;11272;50.104;8.754;2022-09-13T17:58:36;15.77;;;11.00;;
22205;SDS011;11272;50.104;8.754;2022-09-13T18:01:03;22.60;;;11.73;;
22205;SDS011;11272;50.104;8.754;2022-09-13T18:03:30;16.33;;;11.47;;